Current Weather Conditions: station ENQR

sailwx.info

See reports from other nearby stations

no recent reports received from weather station ID ENQR

Tides Pressure Air temp Water temp Dewpoint Dewpoint depression Visibility Wind speed Wind direction Waves Ship positions
date/time (UTC)wind fromknots sea level pressurealtimeterstation pressurevisibilityair tempwater tempwave heightnotes
2017-Apr-25 03:50 010 27 5.4 4.0
2017-Apr-25 03:20 020 32 5.4 4.0
2017-Apr-25 02:50 030 31 5.4 5.0
2017-Apr-25 02:20 030 31 5.4 5.0
2017-Apr-25 01:50 030 31 5.4 5.0
2017-Apr-25 01:20 040 27 5.4 5.0
2017-Apr-25 00:50 040 27 5.4 5.0
2017-Apr-25 00:20 040 24 5.4 5.0
2017-Apr-24 23:50 050 22 gusting 33 5.4 5.0
2017-Apr-24 23:20 060 27 gusting 36 5.4 4.0
2017-Apr-24 22:50 050 20 5.4 6.0
2017-Apr-24 22:20 360 26 5.4 5.0
2017-Apr-24 21:50 360 27 5.4 5.0
2017-Apr-24 21:20 360 15 5.4 4.0
2017-Apr-24 20:50 360 25 5.4 5.0
2017-Apr-24 20:20 020 25 5.4 5.0
2017-Apr-24 19:50 010 15 5.4 4.0
2017-Apr-24 19:20 010 20 5.4 4.0
2017-Apr-24 18:50 020 12 5.4 4.0
2017-Apr-24 18:20 010 19 5.4 3.0
2017-Apr-24 17:50 330 26 5.4 3.0
2017-Apr-24 17:20 300 27 5.4 4.0
2017-Apr-24 16:50 310 29 5.4 4.0
2017-Apr-24 16:20 310 28 5.4 4.0
2017-Apr-24 15:50 320 27 5.4 3.0
2017-Apr-24 15:20 1.0 1.0
2017-Apr-24 14:50 320 18 5.4 2.0
2017-Apr-24 14:20 310 27 5.4 2.0
2017-Apr-24 13:50 330 24 5.4 2.0
2017-Apr-24 13:20 320 19 1.7 1.0
2017-Apr-24 12:50 320 13 5.4-0.0
2017-Apr-24 12:20 350 25 gusting 40 0.7-1.0
2017-Apr-24 11:50 340 22 5.4 1.0
2017-Apr-24 11:20 350 34 5.4 1.0
2017-Apr-24 10:50 310 21 5.4 1.0
2017-Apr-24 10:20 310 25 5.4 1.0
2017-Apr-24 09:50 350 27 5.4 1.0
2017-Apr-24 09:20 350 26 5.4 1.0
2017-Apr-24 08:50 350 27 5.4-0.0
2017-Apr-24 08:20 330 22 5.4-1.0
2017-Apr-24 07:50 330 18 0.4-2.0
2017-Apr-24 07:20 330 27 5.4 1.0
2017-Apr-24 06:50 330 26 5.4 1.0
2017-Apr-24 06:20 330 24 5.4-0.0
2017-Apr-24 05:50 340 27 gusting 38 3.2 1.0
2017-Apr-24 05:20 320 26 5.4 2.0
2017-Apr-24 04:50 340 27 5.4 1.0
2017-Apr-24 04:20 360 28 0.6-1.0
2017-Apr-24 03:50 350 33 5.4 2.0
2017-Apr-24 03:20 360 24 5.4 1.0
2017-Apr-24 02:50 020 29 5.4 2.0
2017-Apr-24 02:20 010 33 5.4 1.0
2017-Apr-24 01:50 350 29 5.4 2.0
2017-Apr-24 01:20 350 38 5.4 1.0
2017-Apr-24 00:50 020 29 5.4 3.0
2017-Apr-24 00:20 020 33 5.4 3.0
2017-Apr-23 23:50 020 32 5.4 3.0
2017-Apr-23 23:20 020 27 5.4 3.0
2017-Apr-23 22:50 020 33 5.4 2.0
2017-Apr-23 22:20 020 27 5.4 3.0
2017-Apr-23 21:50 020 27 5.4 3.0
2017-Apr-23 21:20 030 26 5.4 3.0
2017-Apr-23 20:50 040 21 5.4 4.0
2017-Apr-23 20:20 040 19 5.4 4.0
2017-Apr-23 19:50 030 20 5.4 4.0
2017-Apr-23 19:20 030 20 5.4 4.0
2017-Apr-23 18:50 040 17 5.4 4.0
2017-Apr-23 18:20 050 15 5.4 4.0
2017-Apr-23 17:50 040 14 5.4 3.0
2017-Apr-23 17:20 020 12 5.4 2.0
2017-Apr-23 16:50 030 13 5.4 3.0
2017-Apr-23 16:20 020 15 5.4 3.0
2017-Apr-23 15:50 020 18 5.4 3.0
2017-Apr-23 15:20 350 8 5.4 3.0
2017-Apr-23 14:50 340 7 5.4 3.0
2017-Apr-23 14:20 350 8 5.4 3.0
2017-Apr-23 13:50 020 11 5.4 3.0
2017-Apr-23 13:20 020 12 5.4 3.0
2017-Apr-23 12:50 030 12 5.4 3.0
2017-Apr-23 12:20 020 14 5.4 2.0
2017-Apr-23 11:50 030 13 5.4 2.0
2017-Apr-23 11:20 030 15 5.4 1.0
2017-Apr-23 10:50 2.1 1.0
2017-Apr-23 10:20 0.4 1.0
2017-Apr-23 09:50 080 7 0.9 1.0
2017-Apr-23 09:20 1.1 1.0
2017-Apr-23 08:50 060 4 0.7 1.0
2017-Apr-23 08:20 360 5 5.4 2.0
2017-Apr-23 07:50 250 6 5.4 3.0
2017-Apr-23 07:20 250 6 5.4 4.0
2017-Apr-23 06:50 320 7 5.4 3.0
2017-Apr-23 06:20 300 13 5.4 4.0
2017-Apr-23 05:50 300 14 5.4 4.0
2017-Apr-23 05:20 300 18 5.4 4.0
2017-Apr-23 04:50 310 20 5.4 4.0
2017-Apr-23 04:20 310 21 5.4 4.0